createdAt,value
2023-06-22T00:01:49.975Z,100968.53
2023-06-22T00:04:17.528Z,100973.69
2023-06-22T00:06:45.031Z,100977.72
2023-06-22T00:09:12.486Z,100975.75
2023-06-22T00:11:40.037Z,100978.59
2023-06-22T00:14:07.519Z,100979.78
2023-06-22T00:16:35.049Z,100979.66
2023-06-22T00:19:03.644Z,100982.09
2023-06-22T00:21:32.102Z,100983.13
2023-06-22T00:23:59.610Z,100983.31
2023-06-22T00:26:26.990Z,100991.66
2023-06-22T00:28:54.413Z,100973.84
2023-06-22T00:31:21.842Z,100978.75
2023-06-22T00:33:51.665Z,100968.50
2023-06-22T00:36:20.280Z,100969.84
2023-06-22T00:38:47.706Z,100962.34
2023-06-22T00:41:15.116Z,100970.88
2023-06-22T00:43:43.352Z,100966.00
2023-06-22T00:46:10.952Z,100960.06
2023-06-22T00:48:38.457Z,100960.81
2023-06-22T00:51:06.370Z,100961.06
2023-06-22T00:53:36.418Z,100958.31
2023-06-22T00:56:05.029Z,100948.03
2023-06-22T00:58:33.139Z,100961.34
2023-06-22T01:01:01.620Z,100957.81
2023-06-22T01:03:29.384Z,100960.88
2023-06-22T01:06:10.423Z,100965.59
2023-06-22T01:08:52.899Z,100952.50
2023-06-22T01:11:29.393Z,100960.59
2023-06-22T01:14:07.705Z,100952.69
2023-06-22T01:16:36.751Z,100954.56
2023-06-22T01:19:31.966Z,100952.19
2023-06-22T01:22:01.835Z,100952.47
2023-06-22T01:24:42.590Z,100954.88
2023-06-22T01:27:13.013Z,100962.00
2023-06-22T01:29:41.784Z,100967.47
2023-06-22T01:32:10.377Z,100963.97
2023-06-22T01:34:41.377Z,100962.25
2023-06-22T01:37:10.879Z,100961.75
2023-06-22T01:39:38.761Z,100967.22
2023-06-22T01:42:07.367Z,100959.44
2023-06-22T01:44:35.538Z,100970.31
2023-06-22T01:47:03.315Z,100963.63
2023-06-22T01:49:31.376Z,100964.25
2023-06-22T01:51:59.375Z,100954.91
2023-06-22T01:54:26.801Z,100976.16
2023-06-22T01:56:56.136Z,100952.28
2023-06-22T01:59:38.604Z,100968.13
2023-06-22T02:02:09.073Z,100969.00
2023-06-22T02:04:48.887Z,100974.06
2023-06-22T02:07:20.139Z,100970.56
2023-06-22T02:09:53.034Z,100981.75
2023-06-22T02:12:24.729Z,100969.25
2023-06-22T02:14:57.291Z,100973.84
2023-06-22T02:17:27.224Z,100978.50
2023-06-22T02:19:55.080Z,100978.03
2023-06-22T02:22:22.490Z,100973.47
2023-06-22T02:24:49.919Z,100991.28
2023-06-22T02:27:17.394Z,100968.28
2023-06-22T02:29:45.012Z,100985.22
2023-06-22T02:32:12.528Z,100970.47
2023-06-22T02:34:40.662Z,100988.53
2023-06-22T02:37:08.148Z,100987.94
2023-06-22T02:39:35.640Z,100981.66
2023-06-22T02:42:03.756Z,100992.00
2023-06-22T02:44:31.113Z,100985.09
2023-06-22T02:46:59.148Z,100988.53
2023-06-22T02:49:26.984Z,100986.03
2023-06-22T02:51:55.062Z,100988.28
2023-06-22T02:54:23.330Z,100988.41
2023-06-22T02:57:14.689Z,100990.13
2023-06-22T02:59:43.665Z,100993.59
2023-06-22T03:02:13.306Z,100999.50
2023-06-22T03:04:41.486Z,100994.19
2023-06-22T03:07:08.982Z,100999.63
2023-06-22T03:09:36.471Z,100992.59
2023-06-22T03:12:04.362Z,100998.28
2023-06-22T03:14:43.451Z,100983.31
2023-06-22T03:17:12.060Z,100993.44
2023-06-22T03:19:39.720Z,100997.03
2023-06-22T03:22:08.678Z,100987.75
2023-06-22T03:24:38.334Z,100996.91
2023-06-22T03:27:06.887Z,100995.72
2023-06-22T03:29:35.683Z,100998.91
2023-06-22T03:32:03.647Z,100995.06
2023-06-22T03:34:34.618Z,100993.94
2023-06-22T03:37:02.439Z,100989.88
2023-06-22T03:39:29.960Z,100976.03
2023-06-22T03:41:58.811Z,100988.88
2023-06-22T03:44:26.405Z,101000.16
2023-06-22T03:46:54.003Z,101001.16
2023-06-22T03:49:21.620Z,100996.56
2023-06-22T03:51:49.122Z,101005.22
2023-06-22T03:54:16.602Z,100992.72
2023-06-22T03:56:44.008Z,100992.72
2023-06-22T03:59:11.440Z,100987.50
2023-06-22T04:01:39.243Z,100990.47
2023-06-22T04:04:06.937Z,100982.56
2023-06-22T04:06:35.706Z,100993.72
2023-06-22T04:09:03.672Z,100999.66
2023-06-22T04:11:31.170Z,100979.25
2023-06-22T04:13:58.756Z,100990.75
2023-06-22T04:16:26.276Z,100984.44
2023-06-22T04:19:17.378Z,100990.34
2023-06-22T04:21:45.686Z,100977.53
2023-06-22T04:24:13.152Z,100969.84
2023-06-22T04:26:42.678Z,100985.81
2023-06-22T04:29:10.116Z,100981.38
2023-06-22T04:31:38.071Z,100973.69
2023-06-22T04:34:07.768Z,100967.13
2023-06-22T04:36:41.163Z,100978.28
2023-06-22T04:39:12.477Z,100966.25
2023-06-22T04:41:44.419Z,100977.28
2023-06-22T04:44:25.098Z,100983.31
2023-06-22T04:47:09.704Z,100986.94
2023-06-22T04:49:38.305Z,100975.53
2023-06-22T04:52:08.060Z,100973.06
2023-06-22T04:54:37.482Z,100974.31
2023-06-22T04:57:11.442Z,100968.75
2023-06-22T04:59:43.225Z,100977.41
2023-06-22T05:02:11.255Z,100968.25
2023-06-22T05:04:40.578Z,100964.66
2023-06-22T05:07:08.702Z,100991.91
2023-06-22T05:09:36.108Z,100983.13
2023-06-22T05:12:06.598Z,100990.94
2023-06-22T05:14:35.308Z,100976.94
2023-06-22T05:17:05.098Z,100982.25
2023-06-22T05:19:35.340Z,100975.81
2023-06-22T05:22:03.276Z,100974.31
2023-06-22T05:24:30.702Z,100971.09
2023-06-22T05:26:58.228Z,100978.00
2023-06-22T05:29:25.757Z,100966.63
2023-06-22T05:31:53.154Z,100980.19
2023-06-22T05:34:20.586Z,100979.69
2023-06-22T05:36:48.096Z,100982.66
2023-06-22T05:39:16.265Z,100975.84
2023-06-22T05:41:44.621Z,100985.47
2023-06-22T05:44:12.128Z,100970.94
2023-06-22T05:46:47.883Z,100973.84
2023-06-22T05:49:19.481Z,100968.59
2023-06-22T05:51:47.056Z,100980.78
2023-06-22T05:54:16.827Z,100975.91
2023-06-22T05:56:44.329Z,100972.41
2023-06-22T05:59:13.602Z,100976.91
2023-06-22T06:01:41.496Z,100966.97
2023-06-22T06:04:11.871Z,100968.03
2023-06-22T06:06:39.388Z,100962.09
2023-06-22T06:09:08.743Z,100957.06
2023-06-22T06:11:37.027Z,100968.56
2023-06-22T06:14:04.553Z,100969.91
2023-06-22T06:16:34.814Z,100968.88
2023-06-22T06:19:02.329Z,100970.75
2023-06-22T06:21:31.224Z,100978.84
2023-06-22T06:23:59.782Z,100978.94
2023-06-22T06:26:30.690Z,100971.22
2023-06-22T06:28:58.744Z,100975.09
2023-06-22T06:31:30.790Z,100973.97
2023-06-22T06:33:58.559Z,100973.81
2023-06-22T06:36:26.144Z,100966.38
2023-06-22T06:38:53.842Z,100960.00
2023-06-22T06:41:22.161Z,100973.84
2023-06-22T06:43:50.680Z,100980.94
2023-06-22T06:46:19.869Z,100974.84
2023-06-22T06:48:47.460Z,100969.53
2023-06-22T06:51:15.132Z,100984.53
2023-06-22T06:53:42.898Z,100990.41
2023-06-22T06:56:11.823Z,100983.69
2023-06-22T06:58:43.583Z,100982.25
2023-06-22T07:01:11.056Z,100980.53
2023-06-22T07:03:39.741Z,100972.81
2023-06-22T07:06:07.650Z,100971.97
2023-06-22T07:08:36.341Z,100966.19
2023-06-22T07:11:10.341Z,100962.88
2023-06-22T07:13:38.209Z,100955.72
2023-06-22T07:16:05.766Z,100961.19
2023-06-22T07:18:33.189Z,100949.69
2023-06-22T07:21:00.772Z,100952.41
2023-06-22T07:23:28.228Z,100961.19
2023-06-22T07:25:55.926Z,100962.91
2023-06-22T07:28:23.380Z,100961.34
2023-06-22T07:30:52.432Z,100964.66
2023-06-22T07:33:20.698Z,100966.66
2023-06-22T07:35:49.821Z,100967.41
2023-06-22T07:38:17.256Z,100966.94
2023-06-22T07:40:45.423Z,100960.16
2023-06-22T07:43:13.038Z,100956.13
2023-06-22T07:45:41.635Z,100956.47
2023-06-22T07:48:09.125Z,100957.28
2023-06-22T07:50:36.583Z,100962.31
2023-06-22T07:53:04.061Z,100959.69
2023-06-22T07:55:31.734Z,100959.38
2023-06-22T07:57:59.483Z,100961.22
2023-06-22T08:00:27.112Z,100965.78
2023-06-22T08:02:55.608Z,100963.16
2023-06-22T08:05:23.422Z,100960.97
2023-06-22T08:07:51.655Z,100958.41
2023-06-22T08:10:20.212Z,100958.53
2023-06-22T08:12:47.744Z,100966.81
2023-06-22T08:15:15.633Z,100967.78
2023-06-22T08:17:43.156Z,100967.69
2023-06-22T08:20:13.179Z,100970.41
2023-06-22T08:22:42.121Z,100969.69
2023-06-22T08:25:10.542Z,100973.88
2023-06-22T08:27:38.394Z,100970.13
2023-06-22T08:30:07.512Z,100969.56
2023-06-22T08:32:35.149Z,100962.13
2023-06-22T08:35:10.534Z,100958.13
2023-06-22T08:37:42.319Z,100956.69
2023-06-22T08:40:11.992Z,100953.25
2023-06-22T08:42:41.939Z,100963.44
2023-06-22T08:45:10.221Z,100949.94
2023-06-22T08:47:37.710Z,100960.03
2023-06-22T08:50:07.772Z,100955.53
2023-06-22T08:52:35.704Z,100963.84
2023-06-22T08:55:03.562Z,100959.31
2023-06-22T08:57:33.849Z,100962.44
2023-06-22T09:00:02.248Z,100959.94
2023-06-22T09:02:33.196Z,100956.34
2023-06-22T09:05:01.224Z,100949.53
2023-06-22T09:07:28.901Z,100951.41
2023-06-22T09:09:57.163Z,100953.75
2023-06-22T09:12:35.020Z,100950.91
2023-06-22T09:15:03.822Z,100941.28
2023-06-22T09:17:32.710Z,100946.81
2023-06-22T09:20:01.774Z,100940.50
2023-06-22T09:22:30.365Z,100944.72
2023-06-22T09:24:57.864Z,100939.00
2023-06-22T09:27:29.975Z,100938.13
2023-06-22T09:29:59.657Z,100933.03
2023-06-22T09:32:27.166Z,100937.88
2023-06-22T09:34:54.604Z,100931.84
2023-06-22T09:37:23.161Z,100931.19
2023-06-22T09:39:50.561Z,100925.88
2023-06-22T09:42:19.280Z,100919.31
2023-06-22T09:44:46.707Z,100928.63
2023-06-22T09:47:14.176Z,100922.44
2023-06-22T09:49:48.481Z,100916.03
2023-06-22T09:52:17.203Z,100907.81
2023-06-22T09:54:44.760Z,100904.88
2023-06-22T09:57:12.260Z,100887.69
2023-06-22T09:59:41.102Z,100883.16
2023-06-22T10:02:09.211Z,100894.38
2023-06-22T10:04:37.979Z,100877.47
2023-06-22T10:07:06.175Z,100864.72
2023-06-22T10:09:33.708Z,100879.38
2023-06-22T10:12:01.668Z,100865.81
2023-06-22T10:14:30.816Z,100865.47
2023-06-22T10:17:00.100Z,100861.50
2023-06-22T10:19:27.856Z,100850.66
2023-06-22T10:21:56.875Z,100854.94
2023-06-22T10:24:24.801Z,100859.03
2023-06-22T10:26:52.382Z,100858.66
2023-06-22T10:29:21.697Z,100863.66
2023-06-22T10:31:49.230Z,100860.38
2023-06-22T10:34:16.706Z,100856.09
2023-06-22T10:36:44.285Z,100845.16
2023-06-22T10:39:11.756Z,100845.84
2023-06-22T10:41:39.194Z,100858.38
2023-06-22T10:44:06.928Z,100850.75
2023-06-22T10:46:34.356Z,100851.22
2023-06-22T10:49:01.922Z,100846.78
2023-06-22T10:51:29.914Z,100846.38
2023-06-22T10:53:57.426Z,100839.41
2023-06-22T10:56:24.968Z,100847.34
2023-06-22T10:58:52.537Z,100842.03
2023-06-22T11:01:35.209Z,100842.00
2023-06-22T11:04:05.310Z,100849.88
2023-06-22T11:06:39.553Z,100842.88
2023-06-22T11:11:39.815Z,100839.94
2023-06-22T11:14:07.238Z,100853.91
2023-06-22T11:16:35.841Z,100849.66
2023-06-22T11:19:07.711Z,100841.19
2023-06-22T11:21:35.147Z,100847.00
2023-06-22T11:24:04.468Z,100836.66
2023-06-22T11:26:32.987Z,100833.22
2023-06-22T11:29:00.995Z,100829.59
2023-06-22T11:31:28.548Z,100835.56
2023-06-22T11:33:56.109Z,100831.31
2023-06-22T11:36:23.575Z,100828.03
2023-06-22T11:38:51.072Z,100825.81
2023-06-22T11:41:18.733Z,100812.47
2023-06-22T11:43:46.293Z,100809.91
2023-06-22T11:46:13.780Z,100804.50
2023-06-22T11:48:41.455Z,100798.28
2023-06-22T11:51:09.865Z,100804.47
2023-06-22T11:53:43.261Z,100798.19
2023-06-22T11:56:12.085Z,100789.06
2023-06-22T11:58:39.553Z,100784.97
2023-06-22T12:01:06.958Z,100787.78
2023-06-22T12:03:34.456Z,100788.63
2023-06-22T12:06:02.214Z,100783.44
2023-06-22T12:08:29.873Z,100776.22
2023-06-22T12:10:57.298Z,100772.94
2023-06-22T12:13:24.734Z,100770.53
2023-06-22T12:15:56.553Z,100767.00
2023-06-22T12:18:23.923Z,100761.47
2023-06-22T12:20:51.525Z,100762.09
2023-06-22T12:23:19.097Z,100760.31
2023-06-22T12:25:46.903Z,100750.81
2023-06-22T12:28:15.739Z,100746.59
2023-06-22T12:30:43.224Z,100743.16
2023-06-22T12:33:11.564Z,100750.19
2023-06-22T12:35:39.193Z,100748.28
2023-06-22T12:38:09.697Z,100741.56
2023-06-22T12:40:37.241Z,100733.84
2023-06-22T12:43:04.662Z,100730.00
2023-06-22T12:45:34.862Z,100722.53
2023-06-22T12:48:03.378Z,100726.41
2023-06-22T12:50:31.101Z,100724.63
2023-06-22T12:52:59.137Z,100721.56
2023-06-22T12:55:27.133Z,100718.06
2023-06-22T12:57:54.946Z,100729.13
2023-06-22T13:00:23.341Z,100721.69
2023-06-22T13:02:50.936Z,100723.75
2023-06-22T13:05:20.078Z,100725.38
2023-06-22T13:07:48.112Z,100718.94
2023-06-22T13:10:19.435Z,100720.06
2023-06-22T13:12:47.438Z,100723.94
2023-06-22T13:15:14.807Z,100731.31
2023-06-22T13:17:43.655Z,100720.97
2023-06-22T13:20:11.904Z,100721.06
2023-06-22T13:22:43.777Z,100716.16
2023-06-22T13:25:16.491Z,100713.03
2023-06-22T13:27:48.300Z,100703.72
2023-06-22T13:30:16.004Z,100711.00
2023-06-22T13:32:44.072Z,100713.09
2023-06-22T13:35:12.751Z,100713.22
2023-06-22T13:37:40.169Z,100709.22
2023-06-22T13:40:09.081Z,100694.38
2023-06-22T13:42:36.789Z,100701.66
2023-06-22T13:45:04.849Z,100700.53
2023-06-22T13:47:32.784Z,100702.56
2023-06-22T13:50:00.748Z,100709.19
2023-06-22T13:52:28.244Z,100700.09
2023-06-22T13:54:55.782Z,100709.53
2023-06-22T13:57:23.249Z,100709.59
2023-06-22T13:59:51.337Z,100714.06
2023-06-22T14:02:18.954Z,100712.38
2023-06-22T14:04:46.935Z,100713.97
2023-06-22T14:07:15.223Z,100712.53
2023-06-22T14:09:42.801Z,100711.28
2023-06-22T14:12:11.457Z,100710.22
2023-06-22T14:14:38.952Z,100706.56
2023-06-22T14:17:06.624Z,100712.00
2023-06-22T14:19:34.063Z,100708.72
2023-06-22T14:22:11.354Z,100713.16
2023-06-22T14:24:39.094Z,100714.50
2023-06-22T14:27:08.863Z,100708.56
2023-06-22T14:29:36.862Z,100715.13
2023-06-22T14:32:07.542Z,100713.97
2023-06-22T14:34:40.582Z,100700.56
2023-06-22T14:37:08.551Z,100699.31
2023-06-22T14:39:36.103Z,100708.31
2023-06-22T14:42:07.464Z,100703.38
2023-06-22T14:44:34.967Z,100711.31
2023-06-22T14:47:02.655Z,100687.53
2023-06-22T14:49:30.279Z,100694.69
2023-06-22T14:51:57.733Z,100697.22
2023-06-22T14:54:25.423Z,100703.00
2023-06-22T14:56:52.842Z,100701.13
2023-06-22T14:59:20.260Z,100697.91
2023-06-22T15:01:48.296Z,100698.56
2023-06-22T15:04:16.915Z,100703.81
2023-06-22T15:06:45.492Z,100702.19
2023-06-22T15:09:12.930Z,100690.50
2023-06-22T15:11:40.520Z,100691.34
2023-06-22T15:14:08.858Z,100698.19
2023-06-22T15:16:37.384Z,100697.03
2023-06-22T15:19:04.801Z,100692.56
2023-06-22T15:21:32.858Z,100690.78
2023-06-22T15:24:00.323Z,100693.50
2023-06-22T15:26:27.700Z,100689.25
2023-06-22T15:28:56.112Z,100696.19
2023-06-22T15:31:24.111Z,100686.47
2023-06-22T15:33:51.692Z,100679.84
2023-06-22T15:36:19.519Z,100686.44
2023-06-22T15:38:48.395Z,100687.69
2023-06-22T15:41:15.801Z,100685.16
2023-06-22T15:43:43.285Z,100683.56
2023-06-22T15:46:10.744Z,100686.69
2023-06-22T15:48:38.131Z,100676.03
2023-06-22T15:51:05.640Z,100669.63
2023-06-22T15:53:33.139Z,100663.03
2023-06-22T15:56:00.640Z,100649.53
2023-06-22T15:58:28.104Z,100648.13
2023-06-22T16:00:55.534Z,100640.50
2023-06-22T16:03:24.117Z,100630.22
2023-06-22T16:05:51.856Z,100632.13
2023-06-22T16:08:19.497Z,100612.00
2023-06-22T16:13:32.432Z,100626.59
2023-06-22T16:16:00.222Z,100628.88
2023-06-22T16:18:28.107Z,100638.72
2023-06-22T16:20:55.705Z,100641.16
2023-06-22T16:23:23.918Z,100642.06
2023-06-22T16:25:51.336Z,100646.16
2023-06-22T16:28:18.867Z,100656.41
2023-06-22T16:30:46.584Z,100654.22
2023-06-22T16:33:14.063Z,100648.84
2023-06-22T16:35:42.153Z,100647.78
2023-06-22T16:38:13.250Z,100643.75
2023-06-22T16:40:40.962Z,100646.69
2023-06-22T16:43:08.435Z,100642.59
2023-06-22T16:45:35.898Z,100633.28
2023-06-22T16:48:03.604Z,100628.47
2023-06-22T16:50:31.584Z,100633.16
2023-06-22T16:52:59.163Z,100615.34
2023-06-22T16:55:31.101Z,100614.75
2023-06-22T16:57:59.362Z,100610.38
2023-06-22T17:00:26.767Z,100613.59
2023-06-22T17:02:55.437Z,100615.09
2023-06-22T17:05:23.691Z,100616.66
2023-06-22T17:07:57.828Z,100625.59
2023-06-22T17:10:25.318Z,100624.63
2023-06-22T17:12:54.598Z,100623.75
2023-06-22T17:15:22.913Z,100628.88
2023-06-22T17:17:51.835Z,100618.75
2023-06-22T17:20:19.590Z,100613.09
2023-06-22T17:22:47.259Z,100622.41
2023-06-22T17:25:16.246Z,100618.13
2023-06-22T17:27:49.028Z,100615.91
2023-06-22T17:30:21.719Z,100621.44
2023-06-22T17:32:49.769Z,100608.50
2023-06-22T17:35:17.377Z,100618.13
2023-06-22T17:38:01.392Z,100621.94
2023-06-22T17:40:31.414Z,100620.56
2023-06-22T17:43:08.201Z,100624.75
2023-06-22T17:45:48.413Z,100619.72
2023-06-22T17:48:15.981Z,100614.94
2023-06-22T17:50:43.807Z,100610.03
2023-06-22T17:53:14.859Z,100611.41
2023-06-22T17:55:42.305Z,100617.41
2023-06-22T17:58:09.858Z,100624.13
2023-06-22T18:00:38.128Z,100625.53
2023-06-22T18:03:06.058Z,100621.38
2023-06-22T18:05:35.756Z,100632.19
2023-06-22T18:08:05.646Z,100627.13
2023-06-22T18:10:35.312Z,100616.66
2023-06-22T18:13:07.038Z,100621.47
2023-06-22T18:15:36.404Z,100626.94
2023-06-22T18:18:04.413Z,100625.09
2023-06-22T18:20:36.334Z,100619.97
2023-06-22T18:23:04.383Z,100630.59
2023-06-22T18:25:34.928Z,100635.84
2023-06-22T18:28:02.873Z,100633.78
2023-06-22T18:30:30.929Z,100633.34
2023-06-22T18:32:59.539Z,100630.88
2023-06-22T18:35:27.550Z,100644.66
2023-06-22T18:37:56.362Z,100656.75
2023-06-22T18:40:24.193Z,100647.84
2023-06-22T18:42:51.727Z,100636.50
2023-06-22T18:45:29.469Z,100645.34
2023-06-22T18:48:04.652Z,100630.59
2023-06-22T18:50:37.544Z,100626.50
2023-06-22T18:53:06.395Z,100622.06
2023-06-22T18:55:34.398Z,100610.03
2023-06-22T18:58:16.189Z,100619.81
2023-06-22T19:00:43.877Z,100625.66
2023-06-22T19:03:29.446Z,100615.50
2023-06-22T19:05:57.048Z,100614.31
2023-06-22T19:08:25.438Z,100604.53
2023-06-22T19:10:52.998Z,100600.75
2023-06-22T19:13:21.610Z,100614.00
2023-06-22T19:15:53.314Z,100618.63
2023-06-22T19:18:22.961Z,100638.59
2023-06-22T19:21:00.551Z,100643.38
2023-06-22T19:23:41.280Z,100648.72
2023-06-22T19:26:11.136Z,100646.47
2023-06-22T19:28:52.132Z,100624.47
2023-06-22T19:31:21.577Z,100637.38
2023-06-22T19:34:14.814Z,100635.47
2023-06-22T19:36:42.415Z,100637.22
2023-06-22T19:39:12.007Z,100640.09
2023-06-22T19:41:40.149Z,100626.72
2023-06-22T19:44:07.718Z,100628.44
2023-06-22T19:46:35.686Z,100640.47
2023-06-22T19:49:03.422Z,100639.41
2023-06-22T19:51:35.053Z,100625.81
2023-06-22T19:54:10.303Z,100627.41
2023-06-22T19:56:38.290Z,100616.59
2023-06-22T19:59:14.221Z,100640.22
2023-06-22T20:01:42.673Z,100630.63
2023-06-22T20:04:11.039Z,100622.88
2023-06-22T20:06:39.221Z,100622.56
2023-06-22T20:09:07.882Z,100610.03
2023-06-22T20:11:41.292Z,100635.94
2023-06-22T20:14:08.944Z,100633.00
2023-06-22T20:16:56.476Z,100622.38
2023-06-22T20:19:37.276Z,100617.03
2023-06-22T20:22:08.473Z,100619.75
2023-06-22T20:24:37.684Z,100622.88
2023-06-22T20:27:12.853Z,100602.75
2023-06-22T20:29:41.933Z,100610.16
2023-06-22T20:32:15.435Z,100601.38
2023-06-22T20:34:48.274Z,100592.28
2023-06-22T20:37:19.822Z,100592.13
2023-06-22T20:39:49.510Z,100589.31
2023-06-22T20:42:18.898Z,100586.88
2023-06-22T20:44:51.442Z,100590.13
2023-06-22T20:47:21.949Z,100595.13
2023-06-22T20:49:50.616Z,100581.41
2023-06-22T20:52:18.968Z,100582.41
2023-06-22T20:54:46.834Z,100576.56
2023-06-22T20:57:14.418Z,100590.13
2023-06-22T20:59:42.002Z,100586.84
2023-06-22T21:02:09.506Z,100572.63
2023-06-22T21:04:38.207Z,100576.03
2023-06-22T21:07:06.819Z,100587.13
2023-06-22T21:09:45.982Z,100591.53
2023-06-22T21:12:18.677Z,100584.84
2023-06-22T21:14:46.276Z,100588.28
2023-06-22T21:17:13.841Z,100593.22
2023-06-22T21:19:41.239Z,100603.19
2023-06-22T21:22:08.872Z,100612.38
2023-06-22T21:24:36.335Z,100609.44
2023-06-22T21:27:04.292Z,100600.16
2023-06-22T21:29:31.752Z,100604.78
2023-06-22T21:31:59.352Z,100614.38
2023-06-22T21:34:27.151Z,100614.53
2023-06-22T21:36:56.297Z,100608.16
2023-06-22T21:39:23.907Z,100617.78
2023-06-22T21:41:51.406Z,100623.06
2023-06-22T21:44:18.806Z,100606.44
2023-06-22T21:46:46.376Z,100599.94
2023-06-22T21:49:13.886Z,100593.06
2023-06-22T21:51:41.368Z,100588.59
2023-06-22T21:54:08.933Z,100574.03
2023-06-22T21:56:36.487Z,100560.16
2023-06-22T21:59:03.975Z,100569.41
2023-06-22T22:01:31.510Z,100557.22
2023-06-22T22:03:59.093Z,100576.78
2023-06-22T22:06:28.953Z,100582.44
2023-06-22T22:08:56.412Z,100592.16
2023-06-22T22:11:24.188Z,100595.59
2023-06-22T22:13:52.213Z,100603.53
2023-06-22T22:16:20.320Z,100602.66
2023-06-22T22:18:48.230Z,100608.88
2023-06-22T22:21:15.902Z,100595.75
2023-06-22T22:23:43.369Z,100602.63
2023-06-22T22:26:10.852Z,100588.91
2023-06-22T22:28:38.398Z,100575.09
2023-06-22T22:31:05.911Z,100562.56
2023-06-22T22:33:33.357Z,100554.34
2023-06-22T22:36:03.593Z,100556.41
2023-06-22T22:38:31.241Z,100535.66
2023-06-22T22:40:58.752Z,100534.66
2023-06-22T22:43:26.185Z,100536.94
2023-06-22T22:45:53.630Z,100551.50
2023-06-22T22:48:21.160Z,100540.66
2023-06-22T22:50:48.710Z,100541.56
2023-06-22T22:53:18.561Z,100552.00
2023-06-22T22:55:46.026Z,100551.63
2023-06-22T22:58:13.586Z,100514.84
2023-06-22T23:00:41.580Z,100489.44
2023-06-22T23:03:09.099Z,100469.03
2023-06-22T23:05:36.669Z,100461.56
2023-06-22T23:08:05.209Z,100455.75
2023-06-22T23:10:32.776Z,100461.69
2023-06-22T23:13:00.397Z,100448.59
2023-06-22T23:15:27.989Z,100447.91
2023-06-22T23:17:55.513Z,100434.34
2023-06-22T23:20:23.087Z,100427.94
2023-06-22T23:22:58.602Z,100407.75
2023-06-22T23:25:26.753Z,100405.81
2023-06-22T23:27:54.396Z,100419.66
2023-06-22T23:30:22.007Z,100450.41
2023-06-22T23:32:49.890Z,100456.56
2023-06-22T23:35:17.536Z,100445.53
2023-06-22T23:37:46.856Z,100434.59
2023-06-22T23:40:17.928Z,100427.81
2023-06-22T23:42:49.052Z,100426.94
2023-06-22T23:45:20.979Z,100416.09
2023-06-22T23:47:50.080Z,100421.56
2023-06-22T23:50:19.389Z,100433.59
2023-06-22T23:52:50.126Z,100430.53
2023-06-22T23:55:19.598Z,100432.09
2023-06-22T23:57:47.382Z,100433.84
